Time;durP1;ratioP1;P1;durP2;ratioP2;P2;SDS_P1;SDS_P2;PMS_P1;PMS_P2;Temp;Humidity;BMP_temperature;BMP_pressure;BME280_temperature;BME280_humidity;BME280_pressure;Samples;Min_cycle;Max_cycle;Signal;HPM_P1;HPM_P2
2023/10/05 00:03:11;;;;;;;10.73;2.77;;;;;14.70;101754.00;;;;5015475;28;20241;-72
2023/10/05 00:06:06;;;;;;;8.33;2.73;;;;;14.60;101751.00;;;;5016805;28;20241;-73
2023/10/05 00:08:54;;;;;;;9.00;2.80;;;;;14.60;101755.00;;;;5021597;28;20235;-73
2023/10/05 00:11:41;;;;;;;5.63;2.50;;;;;14.50;101754.00;;;;5021962;28;20231;-73
2023/10/05 00:14:28;;;;;;;8.70;2.70;;;;;14.50;101750.00;;;;5024305;28;20277;-72
2023/10/05 00:17:16;;;;;;;7.63;2.60;;;;;14.50;101747.00;;;;5027669;28;20241;-72
2023/10/05 00:20:09;;;;;;;6.93;2.60;;;;;14.50;101760.00;;;;5019937;28;20295;-72
2023/10/05 00:22:58;;;;;;;6.93;2.60;;;;;14.40;101759.00;;;;5027495;28;20305;-71
2023/10/05 00:25:44;;;;;;;9.07;2.57;;;;;14.50;101752.00;;;;5022650;28;20273;-71
2023/10/05 00:28:31;;;;;;;10.07;2.80;;;;;14.50;101759.00;;;;5027335;28;20272;-69
2023/10/05 00:31:23;;;;;;;13.63;3.00;;;;;14.50;101761.00;;;;5025243;28;20241;-74
2023/10/05 00:34:13;;;;;;;7.07;2.73;;;;;14.40;101766.00;;;;5021844;28;20854;-73
2023/10/05 00:36:59;;;;;;;17.60;3.00;;;;;14.40;101761.00;;;;5021390;28;20229;-72
2023/10/05 00:39:49;;;;;;;7.10;2.77;;;;;14.40;101750.00;;;;5022659;28;20386;-71
2023/10/05 00:42:35;;;;;;;12.87;2.40;;;;;14.40;101762.00;;;;5028129;28;20243;-69
2023/10/05 00:45:25;;;;;;;7.70;2.50;;;;;14.40;101762.00;;;;5026761;28;20243;-72
2023/10/05 00:48:28;;;;;;;7.13;2.37;;;;;14.40;101754.00;;;;5019838;28;21013;-72
2023/10/05 00:51:23;;;;;;;5.57;2.43;;;;;14.40;101747.00;;;;5018156;28;20247;-72
2023/10/05 00:54:11;;;;;;;8.67;2.60;;;;;14.40;101767.00;;;;5025668;28;20344;-73
2023/10/05 00:57:02;;;;;;;8.57;2.60;;;;;14.40;101754.00;;;;5021941;28;20239;-73
2023/10/05 00:59:58;;;;;;;9.37;2.70;;;;;14.40;101768.00;;;;5020092;28;20240;-71
2023/10/05 01:02:46;;;;;;;6.83;2.60;;;;;14.40;101772.00;;;;5021060;28;20293;-71
2023/10/05 01:05:47;;;;;;;5.63;2.70;;;;;14.40;101774.00;;;;5026555;28;20762;-73
2023/10/05 01:08:39;;;;;;;8.43;2.57;;;;;14.40;101777.00;;;;5023909;28;20364;-71
2023/10/05 01:11:37;;;;;;;10.00;2.30;;;;;14.40;101771.00;;;;5020799;28;20231;-70
2023/10/05 01:14:27;;;;;;;6.50;2.47;;;;;14.40;101767.00;;;;5020052;28;20237;-74
2023/10/05 01:17:13;;;;;;;8.10;2.67;;;;;14.30;101763.00;;;;5015297;28;20740;-72
2023/10/05 01:20:11;;;;;;;5.70;2.13;;;;;14.30;101761.00;;;;5024989;28;20221;-70
2023/10/05 01:23:04;;;;;;;6.53;2.43;;;;;14.30;101761.00;;;;5025789;28;20308;-73
2023/10/05 01:25:52;;;;;;;4.60;2.20;;;;;14.30;101756.00;;;;5016235;28;20240;-73
2023/10/05 01:28:39;;;;;;;8.67;2.70;;;;;14.30;101751.00;;;;5020917;28;20241;-72
2023/10/05 01:31:27;;;;;;;5.13;2.30;;;;;14.20;101755.00;;;;5023327;28;20386;-72
2023/10/05 01:34:14;;;;;;;8.87;2.70;;;;;14.20;101753.00;;;;5026248;28;20657;-71
2023/10/05 01:37:00;;;;;;;7.43;2.60;;;;;14.20;101757.00;;;;5025945;28;20707;-71
2023/10/05 01:39:48;;;;;;;8.50;2.60;;;;;14.20;101749.00;;;;5024534;28;20297;-71
2023/10/05 01:42:34;;;;;;;5.77;2.60;;;;;14.30;101754.00;;;;5025099;28;20242;-71
2023/10/05 01:45:28;;;;;;;8.77;2.53;;;;;14.30;101762.00;;;;5013828;28;20233;-73
2023/10/05 01:48:18;;;;;;;6.90;2.43;;;;;14.30;101752.00;;;;5020466;28;20736;-73
2023/10/05 01:51:09;;;;;;;10.53;3.03;;;;;14.30;101759.00;;;;5021757;28;20308;-73
2023/10/05 01:54:02;;;;;;;10.57;2.70;;;;;14.20;101758.00;;;;5020356;28;20975;-72
2023/10/05 01:56:50;;;;;;;5.90;2.17;;;;;14.20;101750.00;;;;5032959;28;20360;-72
2023/10/05 01:59:37;;;;;;;7.27;2.80;;;;;14.20;101756.00;;;;5018231;28;20245;-72
2023/10/05 02:02:23;;;;;;;5.83;2.40;;;;;14.20;101748.00;;;;5027074;28;20229;-72
2023/10/05 02:05:12;;;;;;;5.97;2.30;;;;;14.20;101760.00;;;;5017814;28;20236;-72
2023/10/05 02:07:58;;;;;;;5.93;2.17;;;;;14.10;101759.00;;;;5020679;28;20788;-70
2023/10/05 02:10:47;;;;;;;5.20;2.40;;;;;14.10;101751.00;;;;5032736;28;20238;-72
2023/10/05 02:13:34;;;;;;;8.53;2.50;;;;;14.10;101748.00;;;;5015622;28;20234;-72
2023/10/05 02:16:22;;;;;;;4.53;2.47;;;;;14.10;101751.00;;;;5029077;28;20368;-72
2023/10/05 02:19:09;;;;;;;10.87;2.53;;;;;14.00;101752.00;;;;5025437;28;20228;-73
2023/10/05 02:21:57;;;;;;;4.77;2.37;;;;;14.10;101744.00;;;;5021373;28;20268;-72
2023/10/05 02:24:44;;;;;;;8.40;2.17;;;;;14.10;101741.00;;;;5025431;28;20237;-72
2023/10/05 02:27:30;;;;;;;8.60;2.50;;;;;14.10;101731.00;;;;5025869;28;20232;-72
2023/10/05 02:30:27;;;;;;;8.17;2.33;;;;;14.10;101738.00;;;;5017519;28;20229;-72
2023/10/05 02:33:13;;;;;;;9.07;2.50;;;;;14.10;101737.00;;;;5022271;28;20276;-69
2023/10/05 02:36:10;;;;;;;7.47;2.43;;;;;14.10;101738.00;;;;5023673;28;20308;-73
2023/10/05 02:38:56;;;;;;;5.77;2.70;;;;;14.20;101740.00;;;;5016266;28;20234;-71
2023/10/05 02:41:43;;;;;;;5.67;2.60;;;;;14.20;101744.00;;;;5024739;28;20234;-73
2023/10/05 02:44:31;;;;;;;7.00;2.33;;;;;14.10;101727.00;;;;5023213;28;20798;-73
2023/10/05 02:47:23;;;;;;;10.47;2.50;;;;;14.10;101732.00;;;;5010863;28;20254;-72
2023/10/05 02:50:10;;;;;;;7.87;2.63;;;;;14.10;101731.00;;;;5022688;28;20743;-72
2023/10/05 02:52:59;;;;;;;6.73;2.47;;;;;14.20;101731.00;;;;5023300;28;20237;-72
2023/10/05 02:55:51;;;;;;;7.30;2.47;;;;;14.20;101728.00;;;;5024176;28;20224;-72
2023/10/05 02:58:37;;;;;;;9.53;2.90;;;;;14.20;101721.00;;;;5021605;28;20234;-72
2023/10/05 03:01:24;;;;;;;6.43;2.27;;;;;14.10;101718.00;;;;5028250;28;20350;-73
2023/10/05 03:04:21;;;;;;;5.50;2.40;;;;;14.20;101710.00;;;;5021210;28;20726;-72
2023/10/05 03:07:08;;;;;;;6.43;2.40;;;;;14.10;101713.00;;;;5019319;28;20607;-73
2023/10/05 03:09:59;;;;;;;8.67;2.57;;;;;14.20;101710.00;;;;5022621;28;20229;-72
2023/10/05 03:12:45;;;;;;;6.33;2.53;;;;;14.10;101712.00;;;;5020793;28;20362;-72
2023/10/05 03:15:34;;;;;;;7.57;2.30;;;;;14.10;101720.00;;;;5020087;28;20625;-75
2023/10/05 03:18:21;;;;;;;10.27;3.00;;;;;14.00;101723.00;;;;5017195;28;20245;-72
2023/10/05 03:21:13;;;;;;;8.43;2.63;;;;;14.00;101727.00;;;;5014502;28;20226;-71
2023/10/05 03:23:59;;;;;;;7.73;2.67;;;;;14.00;101720.00;;;;5016921;28;20226;-71
2023/10/05 03:26:48;;;;;;;9.43;2.80;;;;;14.00;101725.00;;;;5020284;28;20297;-72
2023/10/05 03:29:35;;;;;;;9.47;2.90;;;;;14.00;101721.00;;;;5014365;28;20238;-72
2023/10/05 03:32:28;;;;;;;7.83;3.03;;;;;14.00;101723.00;;;;5022501;28;20268;-71
2023/10/05 03:35:22;;;;;;;10.30;2.37;;;;;13.90;101733.00;;;;5018484;28;20910;-73
2023/10/05 03:38:11;;;;;;;8.10;3.00;;;;;13.90;101726.00;;;;5021838;28;20738;-73
2023/10/05 03:41:03;;;;;;;9.27;2.87;;;;;13.90;101726.00;;;;5013111;28;21216;-68
2023/10/05 03:43:51;;;;;;;7.80;2.47;;;;;13.90;101733.00;;;;5015300;28;20231;-73
2023/10/05 03:46:37;;;;;;;7.00;2.43;;;;;13.80;101714.00;;;;5017213;28;20231;-73
2023/10/05 03:49:23;;;;;;;7.13;2.37;;;;;13.80;101718.00;;;;5017421;28;20806;-72
2023/10/05 03:52:10;;;;;;;5.37;2.30;;;;;13.80;101716.00;;;;5016054;28;20229;-73
2023/10/05 03:55:03;;;;;;;6.17;2.43;;;;;13.70;101717.00;;;;5019705;28;20735;-73
2023/10/05 03:57:50;;;;;;;6.03;2.40;;;;;13.60;101719.00;;;;5020226;28;20225;-72
2023/10/05 04:00:37;;;;;;;12.53;2.40;;;;;13.60;101720.00;;;;5023478;28;20239;-72
2023/10/05 04:03:26;;;;;;;10.30;2.40;;;;;13.60;101726.00;;;;5015787;28;20231;-73
2023/10/05 04:06:18;;;;;;;6.63;2.87;;;;;13.60;101729.00;;;;5016860;28;20293;-70
2023/10/05 04:09:06;;;;;;;9.03;2.67;;;;;13.60;101731.00;;;;5015395;28;20258;-73
2023/10/05 04:11:54;;;;;;;8.10;2.73;;;;;13.60;101719.00;;;;5015129;28;20736;-73
2023/10/05 04:14:40;;;;;;;8.23;2.33;;;;;13.70;101717.00;;;;5021801;28;20730;-73
2023/10/05 04:17:27;;;;;;;4.23;2.40;;;;;13.70;101729.00;;;;5019805;28;20978;-72
2023/10/05 04:20:19;;;;;;;6.43;2.77;;;;;13.70;101728.00;;;;5017421;28;20246;-73
2023/10/05 04:23:07;;;;;;;7.70;2.97;;;;;13.70;101723.00;;;;5019041;28;20739;-72
2023/10/05 04:25:54;;;;;;;8.73;2.77;;;;;13.70;101727.00;;;;5014990;28;20838;-73
2023/10/05 04:28:51;;;;;;;6.30;2.60;;;;;13.70;101718.00;;;;5023485;28;20257;-73
2023/10/05 04:31:38;;;;;;;10.60;3.00;;;;;13.70;101733.00;;;;5013339;28;20239;-73
2023/10/05 04:34:30;;;;;;;9.73;2.37;;;;;13.70;101738.00;;;;5017159;28;20230;-73
2023/10/05 04:37:17;;;;;;;4.40;2.40;;;;;13.70;101721.00;;;;5020867;28;20242;-73
2023/10/05 04:40:09;;;;;;;3.83;2.50;;;;;13.70;101712.00;;;;5021052;28;20318;-71
2023/10/05 04:42:58;;;;;;;5.63;2.87;;;;;13.70;101716.00;;;;5018430;28;20361;-74
2023/10/05 04:45:47;;;;;;;7.87;2.60;;;;;13.80;101722.00;;;;5017452;28;20229;-73
2023/10/05 04:48:33;;;;;;;7.27;2.80;;;;;13.80;101718.00;;;;5011581;28;20303;-74
2023/10/05 04:51:20;;;;;;;10.03;3.27;;;;;13.80;101717.00;;;;5015977;28;20609;-73
2023/10/05 04:54:10;;;;;;;4.07;2.63;;;;;13.80;101729.00;;;;5009664;28;20305;-73
2023/10/05 04:57:07;;;;;;;8.23;2.93;;;;;13.80;101718.00;;;;5025535;28;20224;-74
2023/10/05 04:59:59;;;;;;;9.20;2.60;;;;;13.90;101719.00;;;;5027008;28;20233;-73
2023/10/05 05:03:05;;;;;;;6.67;3.03;;;;;13.90;101728.00;;;;5019830;28;20627;-71
2023/10/05 05:06:08;;;;;;;5.30;2.60;;;;;13.90;101728.00;;;;5018979;28;20233;-73
2023/10/05 05:08:55;;;;;;;6.57;2.63;;;;;13.80;101712.00;;;;5022578;28;20233;-72
2023/10/05 05:11:41;;;;;;;11.87;3.17;;;;;13.90;101732.00;;;;5020058;28;20311;-73
2023/10/05 05:14:28;;;;;;;7.83;2.60;;;;;13.90;101726.00;;;;5024291;28;20291;-73
2023/10/05 05:17:16;;;;;;;6.03;2.23;;;;;13.90;101724.00;;;;5017956;28;20245;-73
2023/10/05 05:20:11;;;;;;;5.97;2.60;;;;;13.90;101724.00;;;;5026126;28;20687;-71
2023/10/05 05:22:58;;;;;;;7.40;2.67;;;;;13.90;101731.00;;;;5018527;28;20225;-72
2023/10/05 05:25:51;;;;;;;5.20;2.53;;;;;13.90;101727.00;;;;5021686;28;20234;-73
2023/10/05 05:28:38;;;;;;;9.97;2.90;;;;;13.90;101731.00;;;;5024843;28;20565;-72
2023/10/05 05:31:24;;;;;;;7.27;2.47;;;;;13.90;101726.00;;;;5019819;28;20231;-72
2023/10/05 05:34:11;;;;;;;10.37;2.80;;;;;13.90;101728.00;;;;5024003;28;20225;-73
2023/10/05 05:36:58;;;;;;;8.37;2.73;;;;;13.90;101732.00;;;;5022068;28;20226;-73
2023/10/05 05:39:45;;;;;;;9.43;2.53;;;;;13.90;101731.00;;;;5016174;28;20337;-72
2023/10/05 05:42:34;;;;;;;5.50;2.57;;;;;13.90;101729.00;;;;5019722;28;20280;-71
2023/10/05 05:45:20;;;;;;;4.90;2.63;;;;;14.00;101726.00;;;;5022735;28;20353;-71
2023/10/05 05:48:09;;;;;;;7.77;2.77;;;;;14.00;101734.00;;;;5016418;28;20641;-72
2023/10/05 05:50:55;;;;;;;6.00;2.60;;;;;14.00;101729.00;;;;5029673;28;20237;-72
2023/10/05 05:53:45;;;;;;;7.27;2.40;;;;;14.00;101735.00;;;;5011327;28;20306;-72
2023/10/05 05:56:32;;;;;;;10.60;2.90;;;;;13.90;101734.00;;;;5019174;28;20289;-73
2023/10/05 05:59:18;;;;;;;13.30;3.00;;;;;14.00;101729.00;;;;5021453;28;20308;-72
2023/10/05 06:02:07;;;;;;;10.50;2.93;;;;;13.90;101734.00;;;;5016521;28;20232;-74
2023/10/05 06:04:53;;;;;;;5.47;2.60;;;;;13.90;101738.00;;;;5020671;28;20296;-71
2023/10/05 06:07:41;;;;;;;9.47;2.90;;;;;14.00;101745.00;;;;5022612;28;20435;-74
2023/10/05 06:10:34;;;;;;;4.87;2.50;;;;;14.00;101749.00;;;;5017014;28;20242;-73
2023/10/05 06:13:22;;;;;;;7.60;2.67;;;;;14.00;101756.00;;;;5023406;28;20238;-71
2023/10/05 06:16:09;;;;;;;5.03;2.40;;;;;14.00;101765.00;;;;5015248;28;20616;-74
2023/10/05 06:18:56;;;;;;;7.53;2.67;;;;;14.00;101767.00;;;;5021776;28;20231;-74
2023/10/05 06:21:42;;;;;;;10.03;2.70;;;;;14.00;101768.00;;;;5019123;28;20288;-71
2023/10/05 06:24:29;;;;;;;9.63;3.00;;;;;14.00;101770.00;;;;5025188;28;20234;-75
2023/10/05 06:27:17;;;;;;;7.77;2.83;;;;;14.00;101764.00;;;;5015975;28;20379;-72
2023/10/05 06:30:06;;;;;;;13.63;3.03;;;;;14.20;101771.00;;;;5024783;28;20239;-72
2023/10/05 06:32:54;;;;;;;10.37;2.70;;;;;14.00;101775.00;;;;5023713;28;20249;-74
2023/10/05 06:35:41;;;;;;;5.93;2.80;;;;;14.10;101775.00;;;;5017367;28;20228;-74
2023/10/05 06:38:27;;;;;;;6.50;2.70;;;;;14.10;101774.00;;;;5016479;28;20364;-69
2023/10/05 06:41:19;;;;;;;6.03;3.10;;;;;14.20;101787.00;;;;5013191;28;20980;-71
2023/10/05 06:44:10;;;;;;;6.90;2.40;;;;;14.30;101789.00;;;;5023807;28;20254;-71
2023/10/05 06:46:56;;;;;;;7.77;2.90;;;;;14.30;101786.00;;;;5018842;28;20236;-71
2023/10/05 06:49:43;;;;;;;8.67;2.53;;;;;14.40;101789.00;;;;5021400;28;20303;-69
2023/10/05 06:52:29;;;;;;;7.03;2.50;;;;;14.40;101785.00;;;;5019188;28;20617;-71
2023/10/05 06:55:18;;;;;;;11.60;2.90;;;;;14.40;101785.00;;;;5018082;28;20238;-72
2023/10/05 06:58:05;;;;;;;11.47;3.07;;;;;14.40;101794.00;;;;5024501;28;20253;-72
2023/10/05 07:00:53;;;;;;;10.00;2.70;;;;;14.40;101806.00;;;;5017250;28;20314;-71
2023/10/05 07:03:39;;;;;;;8.17;2.67;;;;;14.50;101797.00;;;;5015027;28;20226;-71
2023/10/05 07:06:29;;;;;;;8.90;2.57;;;;;14.60;101798.00;;;;5014786;28;20228;-72
2023/10/05 07:09:15;;;;;;;7.83;2.70;;;;;14.60;101800.00;;;;5017144;28;20240;-71
2023/10/05 07:12:03;;;;;;;6.33;2.40;;;;;14.60;101797.00;;;;5016881;28;20612;-73
2023/10/05 07:14:49;;;;;;;7.60;2.90;;;;;14.60;101799.00;;;;5018662;28;20844;-73
2023/10/05 07:17:37;;;;;;;10.77;2.70;;;;;14.70;101799.00;;;;5018237;28;20241;-73
2023/10/05 07:20:24;;;;;;;9.90;2.90;;;;;14.70;101803.00;;;;5017524;28;20284;-73
2023/10/05 07:23:10;;;;;;;7.30;2.77;;;;;14.70;101801.00;;;;5015346;28;20239;-71
2023/10/05 07:25:57;;;;;;;8.47;2.90;;;;;14.80;101797.00;;;;5018656;28;20796;-71
2023/10/05 07:28:44;;;;;;;7.03;2.50;;;;;14.80;101803.00;;;;5017609;28;20226;-73
2023/10/05 07:31:30;;;;;;;8.23;2.60;;;;;14.90;101798.00;;;;5018267;28;20247;-73
2023/10/05 07:34:17;;;;;;;10.80;2.70;;;;;14.90;101793.00;;;;5021256;28;21077;-73
2023/10/05 07:37:05;;;;;;;4.20;2.27;;;;;14.90;101793.00;;;;5017518;28;20298;-73
2023/10/05 07:39:51;;;;;;;8.20;2.60;;;;;14.90;101804.00;;;;5021811;28;20233;-72
2023/10/05 07:42:38;;;;;;;11.07;2.70;;;;;15.00;101811.00;;;;5021567;28;20269;-73
2023/10/05 07:45:24;;;;;;;7.60;3.17;;;;;15.00;101823.00;;;;5021726;28;20231;-74
2023/10/05 07:48:11;;;;;;;6.43;2.80;;;;;15.00;101825.00;;;;5016542;28;20260;-70
2023/10/05 07:51:00;;;;;;;10.30;2.90;;;;;14.90;101836.00;;;;5015780;28;20276;-71
2023/10/05 07:53:46;;;;;;;9.97;2.97;;;;;15.00;101835.00;;;;5015967;28;20240;-72
2023/10/05 07:56:33;;;;;;;8.27;3.00;;;;;15.10;101831.00;;;;5021496;28;20231;-72
2023/10/05 07:59:21;;;;;;;8.43;3.30;;;;;15.10;101844.00;;;;5018515;28;20237;-73
2023/10/05 08:02:08;;;;;;;23.27;4.63;;;;;15.20;101842.00;;;;5019779;28;20239;-73
2023/10/05 08:04:54;;;;;;;9.10;3.00;;;;;15.30;101837.00;;;;5015317;28;20223;-72
2023/10/05 08:07:44;;;;;;;6.50;2.97;;;;;15.40;101852.00;;;;5022837;28;20590;-74
2023/10/05 08:10:31;;;;;;;25.00;4.70;;;;;15.50;101856.00;;;;5017726;28;20376;-74
2023/10/05 08:13:17;;;;;;;12.47;3.53;;;;;15.60;101865.00;;;;5021922;28;20300;-73
2023/10/05 08:16:06;;;;;;;9.33;2.73;;;;;15.50;101856.00;;;;5026597;28;20273;-71
2023/10/05 08:18:54;;;;;;;7.07;2.73;;;;;15.50;101871.00;;;;5019400;28;20597;-68
2023/10/05 08:21:41;;;;;;;7.77;2.90;;;;;15.60;101865.00;;;;5020414;28;20313;-73
2023/10/05 08:24:31;;;;;;;6.00;2.90;;;;;15.50;101857.00;;;;5017222;28;20245;-71
2023/10/05 08:27:21;;;;;;;9.47;2.87;;;;;15.70;101870.00;;;;5016489;28;21021;-72
2023/10/05 08:30:08;;;;;;;11.27;3.20;;;;;15.60;101876.00;;;;5024720;28;20275;-71
2023/10/05 08:32:56;;;;;;;9.80;3.07;;;;;15.80;101871.00;;;;5023473;28;20246;-72
2023/10/05 08:35:47;;;;;;;10.70;2.87;;;;;15.80;101875.00;;;;5022532;28;20280;-72
2023/10/05 08:38:33;;;;;;;5.23;2.43;;;;;15.90;101869.00;;;;5019253;28;20234;-74
2023/10/05 08:41:32;;;;;;;9.77;2.63;;;;;16.00;101879.00;;;;5019926;28;20331;-71
2023/10/05 08:44:26;;;;;;;6.27;2.70;;;;;16.00;101876.00;;;;5024796;28;20620;-72
2023/10/05 08:47:13;;;;;;;8.60;2.90;;;;;16.10;101873.00;;;;5020838;28;20790;-73
2023/10/05 08:50:00;;;;;;;6.33;2.27;;;;;16.10;101871.00;;;;5032532;28;20288;-70
2023/10/05 08:52:47;;;;;;;11.93;3.73;;;;;16.20;101882.00;;;;5026017;28;20307;-73
2023/10/05 08:55:34;;;;;;;7.93;2.90;;;;;16.30;101870.00;;;;5025594;28;21215;-72
2023/10/05 08:58:23;;;;;;;8.47;2.63;;;;;16.30;101870.00;;;;5021206;28;20721;-72
2023/10/05 09:01:27;;;;;;;8.20;2.80;;;;;16.40;101878.00;;;;5026134;28;20876;-73
2023/10/05 09:07:34;;;;;;;8.93;2.60;;;;;16.60;101877.00;;;;5025169;28;20284;-74
2023/10/05 09:10:26;;;;;;;7.20;2.77;;;;;16.60;101880.00;;;;5022558;28;20233;-72
2023/10/05 09:13:13;;;;;;;7.10;2.70;;;;;16.70;101875.00;;;;5021652;28;20237;-72
2023/10/05 09:16:01;;;;;;;8.43;3.13;;;;;16.70;101885.00;;;;5030123;28;20749;-72
2023/10/05 09:18:48;;;;;;;7.30;2.83;;;;;16.80;101879.00;;;;5021653;28;20225;-70
2023/10/05 09:21:50;;;;;;;8.30;3.07;;;;;16.90;101890.00;;;;5020038;28;20392;-71
2023/10/05 09:24:40;;;;;;;6.60;2.97;;;;;16.90;101891.00;;;;5024681;28;20252;-72
2023/10/05 09:27:47;;;;;;;12.00;3.40;;;;;17.00;101889.00;;;;5020244;28;20229;-71
2023/10/05 09:30:34;;;;;;;20.70;3.20;;;;;16.90;101893.00;;;;5020521;28;20233;-72
2023/10/05 09:33:24;;;;;;;7.00;3.10;;;;;17.10;101890.00;;;;5023948;28;20269;-70
2023/10/05 09:36:19;;;;;;;9.30;3.00;;;;;17.20;101894.00;;;;5023329;28;20308;-71
2023/10/05 09:39:08;;;;;;;5.53;2.67;;;;;17.10;101898.00;;;;5017751;28;20234;-70
2023/10/05 09:41:56;;;;;;;14.33;4.63;;;;;17.20;101904.00;;;;5015172;28;20356;-71
2023/10/05 09:44:50;;;;;;;8.53;3.23;;;;;17.20;101898.00;;;;5019892;28;20229;-73
2023/10/05 09:47:38;;;;;;;6.57;2.70;;;;;17.30;101898.00;;;;5018728;28;20237;-70
2023/10/05 09:50:27;;;;;;;9.63;3.00;;;;;17.30;101897.00;;;;5030438;28;20218;-72
2023/10/05 09:53:17;;;;;;;21.67;4.30;;;;;17.40;101900.00;;;;5027361;28;20236;-72
2023/10/05 09:56:04;;;;;;;20.73;5.37;;;;;17.40;101906.00;;;;5027452;28;20222;-74
2023/10/05 09:58:52;;;;;;;14.47;3.40;;;;;17.50;101911.00;;;;5032578;28;20588;-74
2023/10/05 10:01:40;;;;;;;10.93;2.80;;;;;17.60;101917.00;;;;5037267;28;20227;-72
2023/10/05 10:04:37;;;;;;;10.03;2.80;;;;;17.70;101925.00;;;;5034520;28;20218;-73
2023/10/05 10:07:26;;;;;;;7.33;2.50;;;;;17.80;101932.00;;;;5037157;28;20305;-74
2023/10/05 10:10:13;;;;;;;11.30;3.10;;;;;17.70;101929.00;;;;5040240;28;20249;-78
2023/10/05 10:12:59;;;;;;;6.27;2.60;;;;;17.70;101930.00;;;;5032833;28;20257;-76
2023/10/05 10:15:49;;;;;;;6.97;2.90;;;;;17.70;101932.00;;;;5041642;28;20225;-73
2023/10/05 10:18:38;;;;;;;6.67;3.07;;;;;17.70;101934.00;;;;5039077;28;20280;-73
2023/10/05 10:21:32;;;;;;;11.10;3.20;;;;;17.70;101939.00;;;;5025321;28;20238;-75
2023/10/05 10:24:20;;;;;;;23.90;3.43;;;;;17.80;101932.00;;;;5025943;28;20233;-76
2023/10/05 10:27:12;;;;;;;9.73;2.83;;;;;17.90;101933.00;;;;5017503;28;20272;-75
2023/10/05 10:30:04;;;;;;;6.07;2.40;;;;;17.90;101931.00;;;;5023011;28;20721;-77
2023/10/05 10:33:22;;;;;;;7.20;2.30;;;;;17.90;101936.00;;;;5025150;28;20295;-76
2023/10/05 10:36:18;;;;;;;5.67;2.23;;;;;17.90;101936.00;;;;5022864;28;20826;-76
2023/10/05 10:39:22;;;;;;;6.30;2.67;;;;;18.00;101931.00;;;;5012618;28;20303;-76
2023/10/05 10:42:12;;;;;;;6.80;2.50;;;;;18.10;101940.00;;;;5015177;28;20241;-73
2023/10/05 10:44:59;;;;;;;5.67;2.30;;;;;18.20;101935.00;;;;5011993;28;20229;-74
2023/10/05 10:47:46;;;;;;;8.40;3.00;;;;;18.10;101943.00;;;;5014044;28;20342;-77
2023/10/05 10:50:37;;;;;;;8.50;2.47;;;;;18.00;101943.00;;;;5011770;28;20238;-73
2023/10/05 10:53:30;;;;;;;7.97;2.87;;;;;18.10;101944.00;;;;5012391;28;20823;-73
2023/10/05 10:56:21;;;;;;;7.73;2.67;;;;;18.10;101943.00;;;;5014184;28;20228;-75
2023/10/05 10:59:11;;;;;;;10.43;2.80;;;;;17.90;101939.00;;;;5020634;28;20315;-76
2023/10/05 11:02:10;;;;;;;9.17;2.70;;;;;17.90;101930.00;;;;5011517;28;20230;-75
2023/10/05 11:05:03;;;;;;;9.13;2.30;;;;;17.90;101926.00;;;;5019563;28;20267;-78
2023/10/05 11:07:57;;;;;;;6.23;2.53;;;;;18.00;101915.00;;;;5019592;28;20236;-77
2023/10/05 11:10:44;;;;;;;5.77;2.60;;;;;18.10;101924.00;;;;5016349;28;20845;-79
2023/10/05 11:13:33;;;;;;;8.43;2.47;;;;;18.00;101917.00;;;;5017982;28;20738;-75
2023/10/05 11:16:33;;;;;;;8.90;2.83;;;;;18.10;101913.00;;;;5024684;28;20245;-76
2023/10/05 11:19:24;;;;;;;7.93;2.63;;;;;18.10;101923.00;;;;5019180;28;20230;-76
2023/10/05 11:22:23;;;;;;;7.10;2.40;;;;;18.20;101913.00;;;;5019202;28;20242;-78
2023/10/05 11:25:16;;;;;;;5.77;2.47;;;;;18.30;101916.00;;;;5014790;28;20348;-75
2023/10/05 11:28:08;;;;;;;7.00;2.40;;;;;18.50;101906.00;;;;5017366;28;20229;-78
2023/10/05 11:30:55;;;;;;;7.40;2.53;;;;;18.90;101912.00;;;;5021922;28;20233;-75
2023/10/05 11:34:08;;;;;;;7.37;2.50;;;;;19.10;101916.00;;;;5021005;28;20240;-79
2023/10/05 11:37:16;;;;;;;5.23;2.23;;;;;19.30;101914.00;;;;5018614;28;20373;-75
2023/10/05 11:40:04;;;;;;;5.87;2.60;;;;;19.50;101904.00;;;;5018576;28;20233;-75
2023/10/05 11:42:51;;;;;;;6.73;2.37;;;;;19.60;101907.00;;;;5023120;28;20250;-78
2023/10/05 11:45:37;;;;;;;9.33;2.77;;;;;19.60;101909.00;;;;5023431;28;20230;-75
2023/10/05 11:48:36;;;;;;;7.77;2.97;;;;;19.60;101899.00;;;;5014658;28;20722;-79
2023/10/05 11:51:40;;;;;;;7.47;3.00;;;;;19.70;101895.00;;;;5016717;28;20758;-76
2023/10/05 11:54:29;;;;;;;6.87;3.03;;;;;19.70;101896.00;;;;5023621;28;20289;-77
2023/10/05 11:57:16;;;;;;;11.37;3.03;;;;;19.90;101907.00;;;;5017643;28;20239;-77
2023/10/05 12:00:07;;;;;;;12.27;2.90;;;;;19.90;101891.00;;;;5023245;28;20300;-76
2023/10/05 12:02:54;;;;;;;7.63;3.10;;;;;19.90;101895.00;;;;5026150;28;20235;-75
2023/10/05 12:05:41;;;;;;;5.83;2.60;;;;;20.00;101900.00;;;;5022942;28;20241;-76
2023/10/05 12:08:29;;;;;;;11.73;3.07;;;;;20.00;101908.00;;;;5024727;28;20315;-76
2023/10/05 12:11:16;;;;;;;8.57;3.50;;;;;20.00;101909.00;;;;5018891;28;20234;-77
2023/10/05 12:14:04;;;;;;;9.10;3.30;;;;;19.90;101912.00;;;;5027562;28;20497;-75
2023/10/05 12:16:51;;;;;;;6.77;3.00;;;;;19.60;101904.00;;;;5031666;28;20298;-74
2023/10/05 12:19:39;;;;;;;7.43;2.80;;;;;19.50;101910.00;;;;5027373;28;20238;-75
2023/10/05 12:22:32;;;;;;;13.27;3.50;;;;;19.40;101914.00;;;;5027569;28;20299;-76
2023/10/05 12:25:27;;;;;;;7.57;3.17;;;;;19.40;101911.00;;;;5015872;28;20238;-74
2023/10/05 12:28:14;;;;;;;6.20;3.10;;;;;19.30;101909.00;;;;5022958;28;20285;-75
2023/10/05 12:31:01;;;;;;;8.40;2.90;;;;;19.30;101919.00;;;;5027525;28;20233;-76
2023/10/05 12:33:50;;;;;;;7.83;3.03;;;;;19.30;101915.00;;;;5024309;28;20237;-76
2023/10/05 12:36:36;;;;;;;7.67;2.87;;;;;19.20;101915.00;;;;5024117;28;20308;-79
2023/10/05 12:39:27;;;;;;;5.40;2.60;;;;;19.10;101912.00;;;;5020167;28;20353;-77
2023/10/05 12:42:14;;;;;;;9.43;3.20;;;;;19.00;101909.00;;;;5019591;28;20234;-78
2023/10/05 12:45:04;;;;;;;7.67;3.23;;;;;19.10;101907.00;;;;5022142;28;20227;-77
2023/10/05 12:47:54;;;;;;;7.87;3.00;;;;;19.20;101908.00;;;;5027403;28;20377;-73
2023/10/05 12:50:41;;;;;;;8.07;3.00;;;;;19.30;101925.00;;;;5027755;28;20237;-75
2023/10/05 12:53:28;;;;;;;11.53;3.10;;;;;19.40;101916.00;;;;5025728;28;20434;-76
2023/10/05 12:56:15;;;;;;;6.27;2.80;;;;;19.40;101930.00;;;;5019582;28;20279;-76
2023/10/05 12:59:03;;;;;;;12.00;2.87;;;;;19.40;101929.00;;;;5026086;28;22773;-75
2023/10/05 13:01:50;;;;;;;8.17;2.93;;;;;19.50;101926.00;;;;5031294;28;20358;-76
2023/10/05 13:04:36;;;;;;;7.93;3.10;;;;;19.40;101923.00;;;;5021094;28;20229;-77
2023/10/05 13:07:26;;;;;;;5.23;2.63;;;;;19.50;101926.00;;;;5018944;28;20233;-76
2023/10/05 13:10:13;;;;;;;7.57;2.77;;;;;19.60;101930.00;;;;5022382;28;20711;-75
2023/10/05 13:13:02;;;;;;;9.07;3.40;;;;;19.50;101931.00;;;;5025282;28;20241;-78
2023/10/05 13:15:50;;;;;;;7.03;2.83;;;;;19.30;101932.00;;;;5021940;28;20354;-77
2023/10/05 13:18:38;;;;;;;4.80;2.43;;;;;19.40;101927.00;;;;5026433;28;20249;-76
2023/10/05 13:21:25;;;;;;;7.17;3.00;;;;;19.20;101934.00;;;;5025198;28;20232;-76
2023/10/05 13:24:12;;;;;;;7.97;2.83;;;;;19.10;101933.00;;;;5020826;28;20227;-77
2023/10/05 13:26:59;;;;;;;9.27;3.10;;;;;19.10;101930.00;;;;5022073;28;20238;-69
2023/10/05 13:29:46;;;;;;;7.67;3.03;;;;;19.00;101939.00;;;;5017033;28;20227;-75
2023/10/05 13:32:38;;;;;;;6.73;3.10;;;;;18.90;101935.00;;;;5019964;28;20238;-75
2023/10/05 13:35:29;;;;;;;15.80;4.17;;;;;18.70;101934.00;;;;5022501;28;20261;-73
2023/10/05 13:38:18;;;;;;;9.37;3.20;;;;;18.50;101930.00;;;;5015094;28;20686;-74
2023/10/05 13:41:14;;;;;;;11.33;3.30;;;;;18.60;101928.00;;;;5019629;28;20232;-71
2023/10/05 13:44:00;;;;;;;13.57;2.70;;;;;18.60;101935.00;;;;5021100;28;20223;-72
2023/10/05 13:46:47;;;;;;;33.57;6.73;;;;;18.70;101929.00;;;;5019871;28;20727;-74
2023/10/05 13:49:41;;;;;;;20.80;4.73;;;;;18.80;101930.00;;;;5027011;28;20304;-72
2023/10/05 13:52:28;;;;;;;9.57;3.07;;;;;18.90;101938.00;;;;5018229;28;20734;-73
2023/10/05 13:55:14;;;;;;;10.80;3.53;;;;;18.90;101943.00;;;;5023041;28;20230;-75
2023/10/05 13:58:02;;;;;;;17.93;3.90;;;;;19.00;101934.00;;;;5022274;28;20228;-76
2023/10/05 14:00:48;;;;;;;14.33;3.77;;;;;18.90;101935.00;;;;5020369;28;20235;-75